Terminal Aerodrome Forecast
Issued by NWS

Home | Current Version | Previous Version | Graphics & Text | Print | Product List | Glossary On
Versions: 1 2 3 4 5 6 7 8 9 10 11 12 13 14
000
FTUS43 KGRB 250525
TAFATW
TAF
KATW 250525Z 2506/2606 19006KT P6SM BKN250
     FM251500 22011G18KT P6SM SCT040 BKN200 PROB30 2523/2601 2SM
      +TSRA OVC025CB
     FM260100 24008KT P6SM SCT035 BKN070
      TEMPO 2601/2605 3SM TSRA BR BKN035CB=

USA.gov is the U.S. government's official web portal to all federal, state and local government web resources and services.